Time;durP1;ratioP1;P1;durP2;ratioP2;P2;SDS_P1;SDS_P2;PMS_P1;PMS_P2;Temp;Humidity;BMP_temperature;BMP_pressure;BME280_temperature;BME280_humidity;BME280_pressure;Samples;Min_cycle;Max_cycle;Signal;HPM_P1;HPM_P2
2021/06/30 00:00:06;;;;;;;11.63;8.52;;;;;;;16.72;100.00;100212.78;4975800;28;20185;-75
2021/06/30 00:02:37;;;;;;;9.15;8.25;;;;;;;16.81;100.00;100216.34;4972992;28;20213;-75
2021/06/30 00:05:06;;;;;;;8.88;7.95;;;;;;;16.76;100.00;100211.00;4957262;28;20265;-74
2021/06/30 00:07:34;;;;;;;8.70;7.80;;;;;;;16.76;100.00;100199.25;5005855;28;20785;-75
2021/06/30 00:10:01;;;;;;;10.45;9.30;;;;;;;16.61;100.00;100207.91;4995449;28;20709;-76
2021/06/30 00:12:26;;;;;;;12.52;9.50;;;;;;;16.55;100.00;100205.69;4987113;28;20217;-75
2021/06/30 00:14:56;;;;;;;14.65;9.57;;;;;;;16.26;100.00;100208.22;4973383;28;20233;-75
2021/06/30 00:17:22;;;;;;;10.10;9.10;;;;;;;16.34;100.00;100201.97;4955684;28;20769;-74
2021/06/30 00:19:48;;;;;;;10.88;9.32;;;;;;;16.39;100.00;100199.03;4976349;28;20185;-75
2021/06/30 00:22:19;;;;;;;10.68;8.60;;;;;;;16.51;100.00;100197.28;4986910;28;20278;-75
2021/06/30 00:24:46;;;;;;;10.30;9.20;;;;;;;16.61;100.00;100189.56;4980018;28;20318;-75
2021/06/30 00:27:14;;;;;;;11.88;10.50;;;;;;;16.60;100.00;100190.66;4972242;28;20288;-75
2021/06/30 00:29:40;;;;;;;10.13;9.13;;;;;;;16.61;100.00;100196.94;4976105;28;20190;-75
2021/06/30 00:32:08;;;;;;;10.48;9.02;;;;;;;16.48;100.00;100191.63;4974961;28;20341;-75
2021/06/30 00:34:36;;;;;;;11.45;9.88;;;;;;;16.40;100.00;100178.72;4976153;28;20194;-74
2021/06/30 00:37:02;;;;;;;11.40;9.95;;;;;;;16.58;100.00;100184.69;4982786;28;20286;-74
2021/06/30 00:39:28;;;;;;;10.90;9.80;;;;;;;16.58;100.00;100184.69;4995271;28;20515;-75
2021/06/30 00:41:57;;;;;;;10.52;9.43;;;;;;;16.70;100.00;100179.41;4990076;28;20979;-75
2021/06/30 00:44:25;;;;;;;10.20;9.20;;;;;;;16.76;100.00;100180.84;4976703;28;20197;-76
2021/06/30 00:46:51;;;;;;;10.55;9.55;;;;;;;16.70;100.00;100173.91;4965595;28;20235;-75
2021/06/30 00:49:17;;;;;;;10.82;8.95;;;;;;;16.83;100.00;100177.59;4995772;28;20646;-74
2021/06/30 00:51:42;;;;;;;9.52;8.73;;;;;;;16.83;100.00;100178.41;4977483;28;20217;-74
2021/06/30 00:54:12;;;;;;;9.52;8.63;;;;;;;16.79;100.00;100177.41;4956540;28;20175;-75
2021/06/30 00:56:40;;;;;;;9.85;8.85;;;;;;;16.85;100.00;100167.09;4969017;28;20280;-75
2021/06/30 00:59:09;;;;;;;9.73;8.75;;;;;;;16.79;100.00;100169.19;4974227;28;20694;-75
2021/06/30 01:01:37;;;;;;;9.50;8.60;;;;;;;16.66;100.00;100170.16;4972316;28;20237;-75
2021/06/30 01:04:02;;;;;;;9.23;8.38;;;;;;;16.83;100.00;100167.44;4994559;28;20212;-74
2021/06/30 01:06:28;;;;;;;9.13;8.32;;;;;;;16.94;100.00;100157.75;4994274;28;20236;-76
2021/06/30 01:09:03;;;;;;;8.57;7.78;;;;;;;16.89;100.00;100168.88;4972645;28;20174;-74
2021/06/30 01:11:31;;;;;;;8.05;7.25;;;;;;;16.85;100.00;100158.84;4956310;28;20781;-75
2021/06/30 01:13:57;;;;;;;8.77;7.97;;;;;;;17.11;100.00;100163.19;4976758;28;20190;-75
2021/06/30 01:16:27;;;;;;;9.32;8.35;;;;;;;17.26;100.00;100157.19;4938762;28;20237;-75
2021/06/30 01:18:55;;;;;;;8.90;8.00;;;;;;;17.24;100.00;100173.19;4991386;28;20193;-74
2021/06/30 01:21:23;;;;;;;9.80;8.65;;;;;;;17.06;100.00;100157.84;4993182;28;20646;-76
2021/06/30 01:23:48;;;;;;;9.63;8.73;;;;;;;17.10;100.00;100161.56;4975317;28;20190;-75
2021/06/30 01:26:18;;;;;;;11.43;9.10;;;;;;;17.19;100.00;100160.44;4959449;28;20739;-74
2021/06/30 01:28:44;;;;;;;10.05;9.15;;;;;;;17.03;100.00;100177.72;4974791;28;20562;-74
2021/06/30 01:31:10;;;;;;;10.75;9.75;;;;;;;16.96;100.00;100166.44;4972620;28;20214;-75
2021/06/30 01:33:37;;;;;;;11.00;10.00;;;;;;;16.94;100.00;100168.72;4987115;28;20193;-74
2021/06/30 01:36:04;;;;;;;11.50;10.30;;;;;;;17.00;100.00;100183.88;4993713;28;20304;-74
2021/06/30 01:38:33;;;;;;;10.93;9.82;;;;;;;17.02;100.00;100179.66;4979048;28;20201;-74
2021/06/30 01:41:01;;;;;;;12.23;9.93;;;;;;;16.88;100.00;100180.97;4963033;28;20267;-75
2021/06/30 01:43:29;;;;;;;12.60;10.55;;;;;;;16.94;100.00;100174.19;4976946;28;20686;-74
2021/06/30 01:45:54;;;;;;;11.32;10.20;;;;;;;16.87;100.00;100184.03;4954366;28;20714;-74
2021/06/30 01:48:23;;;;;;;11.30;10.20;;;;;;;17.04;100.00;100173.84;4972599;28;20679;-74
2021/06/30 01:50:50;;;;;;;12.27;10.00;;;;;;;17.07;100.00;100168.53;4985528;28;20228;-74
2021/06/30 01:53:21;;;;;;;14.10;11.23;;;;;;;17.14;100.00;100168.84;4951112;28;20998;-74
2021/06/30 01:55:46;;;;;;;12.32;11.02;;;;;;;17.05;100.00;100169.97;4975748;28;20316;-74
2021/06/30 01:58:15;;;;;;;13.57;10.98;;;;;;;17.07;100.00;100174.00;4973467;28;20190;-75
2021/06/30 02:00:41;;;;;;;13.35;11.95;;;;;;;17.15;100.00;100170.44;4983952;28;20758;-74
2021/06/30 02:03:06;;;;;;;14.73;11.55;;;;;;;17.07;100.00;100165.78;4962695;28;20185;-75
2021/06/30 02:05:36;;;;;;;16.13;13.70;;;;;;;17.19;100.00;100154.16;4965025;28;20229;-76
2021/06/30 02:08:04;;;;;;;15.05;12.32;;;;;;;17.30;100.00;100155.41;4977710;28;20184;-76
2021/06/30 02:10:32;;;;;;;15.68;12.88;;;;;;;17.40;100.00;100159.41;4990687;28;20221;-74
2021/06/30 02:12:58;;;;;;;19.52;15.40;;;;;;;17.45;100.00;100153.75;4982883;28;20177;-73
2021/06/30 02:15:26;;;;;;;18.23;14.30;;;;;;;17.55;100.00;100158.84;4973381;28;20235;-74
2021/06/30 02:17:52;;;;;;;17.52;14.18;;;;;;;17.68;100.00;100157.81;4958102;28;20205;-74
2021/06/30 02:20:20;;;;;;;20.30;13.80;;;;;;;17.78;100.00;100157.44;4973119;28;20243;-76
2021/06/30 02:22:49;;;;;;;20.40;14.50;;;;;;;17.72;100.00;100142.28;4973319;28;20190;-74
2021/06/30 02:25:25;;;;;;;21.05;15.65;;;;;;;17.85;100.00;100141.25;4973199;28;20221;-75
2021/06/30 02:27:51;;;;;;;31.55;18.02;;;;;;;17.85;100.00;100141.25;4979673;28;20189;-75
2021/06/30 02:30:24;;;;;;;26.90;17.52;;;;;;;17.81;100.00;100146.59;4984314;28;20193;-75
2021/06/30 02:32:52;;;;;;;25.33;16.17;;;;;;;17.75;100.00;100147.13;4980270;28;20283;-75
2021/06/30 02:35:23;;;;;;;32.97;17.38;;;;;;;17.95;100.00;100149.13;4998153;28;20207;-74
2021/06/30 02:37:49;;;;;;;42.97;22.10;;;;;;;17.98;100.00;100146.50;5000097;28;20220;-75
2021/06/30 02:40:16;;;;;;;44.97;21.38;;;;;;;17.96;100.00;100150.72;4981567;28;20747;-74
2021/06/30 02:42:42;;;;;;;35.40;20.70;;;;;;;17.82;100.00;100150.16;4990142;28;20182;-75
2021/06/30 02:45:09;;;;;;;38.58;21.48;;;;;;;17.72;100.00;100153.28;4980453;28;20627;-76
2021/06/30 02:47:35;;;;;;;28.48;17.83;;;;;;;17.71;100.00;100151.69;4960878;28;20217;-75
2021/06/30 02:50:04;;;;;;;25.50;17.20;;;;;;;17.74;100.00;100151.00;4988831;28;20301;-76
2021/06/30 02:52:30;;;;;;;32.72;18.92;;;;;;;17.87;100.00;100144.47;4999853;28;20231;-75
2021/06/30 02:54:58;;;;;;;47.08;21.00;;;;;;;17.87;100.00;100150.75;4983797;28;20192;-75
2021/06/30 02:57:26;;;;;;;41.05;21.15;;;;;;;17.98;100.00;100140.19;4973622;28;20719;-75
2021/06/30 02:59:54;;;;;;;56.58;21.50;;;;;;;18.03;100.00;100148.25;4992682;28;20216;-74
2021/06/30 03:02:19;;;;;;;36.40;21.63;;;;;;;17.94;100.00;100142.00;4976028;28;20795;-74
2021/06/30 03:04:47;;;;;;;35.83;20.88;;;;;;;17.96;100.00;100142.47;4990060;28;20213;-75
2021/06/30 03:07:12;;;;;;;35.47;21.42;;;;;;;17.87;100.00;100153.50;4995867;28;20666;-76
2021/06/30 03:09:40;;;;;;;31.65;21.02;;;;;;;17.97;100.00;100155.09;4988080;28;20186;-76
2021/06/30 03:12:09;;;;;;;34.55;20.83;;;;;;;18.00;100.00;100149.72;4986281;28;20241;-74
2021/06/30 03:14:35;;;;;;;33.50;20.55;;;;;;;17.94;100.00;100145.56;4982067;28;20718;-76
2021/06/30 03:17:01;;;;;;;30.02;19.83;;;;;;;17.99;100.00;100153.63;4979550;28;20256;-75
2021/06/30 03:19:27;;;;;;;29.83;21.00;;;;;;;18.02;100.00;100157.63;4977124;28;20254;-75
2021/06/30 03:21:57;;;;;;;36.55;22.58;;;;;;;17.96;100.00;100156.22;4979189;28;20215;-76
2021/06/30 03:24:23;;;;;;;31.98;19.92;;;;;;;18.03;100.00;100164.75;4978183;28;20278;-76
2021/06/30 03:26:49;;;;;;;30.15;20.55;;;;;;;18.07;100.00;100158.25;4995953;28;20233;-75
2021/06/30 03:29:16;;;;;;;29.95;19.27;;;;;;;18.03;100.00;100162.00;4991692;28;20272;-74
2021/06/30 03:31:46;;;;;;;28.23;19.25;;;;;;;17.94;100.00;100166.75;4976659;28;20221;-74
2021/06/30 03:34:11;;;;;;;26.67;19.45;;;;;;;18.10;100.00;100156.81;4980004;28;20212;-75
2021/06/30 03:36:39;;;;;;;31.48;20.83;;;;;;;18.03;100.00;100159.25;4979622;28;20221;-75
2021/06/30 03:39:05;;;;;;;29.40;20.35;;;;;;;18.05;100.00;100165.22;4993046;28;20181;-75
2021/06/30 03:41:31;;;;;;;31.30;21.50;;;;;;;18.15;100.00;100155.47;4982485;28;20222;-74
2021/06/30 03:43:56;;;;;;;37.85;21.83;;;;;;;18.22;100.00;100149.44;4960553;28;20181;-74
2021/06/30 03:46:22;;;;;;;36.42;21.95;;;;;;;18.14;100.00;100162.09;4992934;28;20618;-73
2021/06/30 03:48:50;;;;;;;32.75;22.05;;;;;;;18.11;100.00;100150.16;4976977;28;20200;-76
2021/06/30 03:51:20;;;;;;;35.22;24.08;;;;;;;18.17;100.00;100149.66;4997704;28;20228;-77
2021/06/30 03:53:48;;;;;;;35.13;24.08;;;;;;;18.12;100.00;100151.78;4977091;28;20190;-73
2021/06/30 03:56:14;;;;;;;36.72;23.80;;;;;;;18.20;100.00;100155.28;4957457;28;20245;-74
2021/06/30 03:58:42;;;;;;;35.85;23.88;;;;;;;18.19;100.00;100158.38;4986190;28;20348;-76
2021/06/30 04:01:13;;;;;;;34.55;23.58;;;;;;;18.08;100.00;100153.56;4976113;28;20216;-74
2021/06/30 04:03:38;;;;;;;35.30;24.48;;;;;;;18.11;100.00;100150.16;5010273;28;20744;-74
2021/06/30 04:06:04;;;;;;;35.80;24.17;;;;;;;18.13;100.00;100151.44;4990269;28;20224;-75
2021/06/30 04:08:30;;;;;;;35.40;24.38;;;;;;;18.27;100.00;100150.03;4997143;28;20197;-76
2021/06/30 04:10:58;;;;;;;35.15;24.98;;;;;;;18.37;100.00;100149.66;4987831;28;20217;-75
2021/06/30 04:13:24;;;;;;;37.38;24.40;;;;;;;18.25;100.00;100152.31;4979068;28;20277;-75
2021/06/30 04:15:56;;;;;;;42.60;24.45;;;;;;;18.22;100.00;100147.50;4970212;28;20285;-75
2021/06/30 04:18:24;;;;;;;41.42;24.25;;;;;;;18.12;100.00;100156.13;4977058;28;20190;-75
2021/06/30 04:20:52;;;;;;;38.35;25.33;;;;;;;18.25;100.00;100155.06;4977729;28;20265;-75
2021/06/30 04:23:17;;;;;;;39.50;24.75;;;;;;;18.42;100.00;100160.44;4994670;28;20239;-75
2021/06/30 04:25:47;;;;;;;48.00;26.02;;;;;;;18.45;100.00;100167.25;4998474;28;20229;-75
2021/06/30 04:28:15;;;;;;;45.65;25.83;;;;;;;18.36;100.00;100159.03;4971634;28;20216;-75
2021/06/30 04:30:41;;;;;;;42.67;25.15;;;;;;;18.35;100.00;100162.13;4991158;28;20245;-75
2021/06/30 04:33:11;;;;;;;41.60;25.08;;;;;;;18.32;100.00;100152.59;4975366;28;20278;-74
2021/06/30 04:35:37;;;;;;;41.55;24.85;;;;;;;18.22;100.00;100154.94;4981450;28;20311;-75
2021/06/30 04:38:03;;;;;;;45.70;26.08;;;;;;;18.10;100.00;100143.06;4995067;28;20679;-74
2021/06/30 04:40:29;;;;;;;39.08;25.92;;;;;;;18.16;100.00;100142.53;4990282;28;20226;-74
2021/06/30 04:42:55;;;;;;;36.10;25.45;;;;;;;18.21;100.00;100145.09;4987042;28;20230;-74
2021/06/30 04:45:23;;;;;;;39.53;25.52;;;;;;;18.15;100.00;100146.44;5009912;28;20335;-73
2021/06/30 04:47:51;;;;;;;35.72;24.00;;;;;;;18.11;100.00;100150.97;4992412;28;20301;-74
2021/06/30 04:50:19;;;;;;;41.17;24.63;;;;;;;18.19;100.00;100148.16;4973346;28;20610;-75
2021/06/30 04:52:46;;;;;;;32.42;23.60;;;;;;;18.37;100.00;100143.34;4982181;28;20634;-74
2021/06/30 04:55:12;;;;;;;35.10;23.90;;;;;;;18.28;100.00;100146.16;4975391;28;20198;-74
2021/06/30 04:57:38;;;;;;;34.08;22.67;;;;;;;18.47;100.00;100143.75;4976025;28;20272;-74
2021/06/30 05:00:08;;;;;;;30.83;22.67;;;;;;;18.69;100.00;100146.94;4975101;28;20365;-73
2021/06/30 05:02:33;;;;;;;36.30;22.88;;;;;;;18.68;100.00;100150.84;4972344;28;20598;-73
2021/06/30 05:05:01;;;;;;;29.10;22.20;;;;;;;18.95;100.00;100151.09;4972623;28;20225;-74
2021/06/30 05:07:27;;;;;;;32.72;22.05;;;;;;;18.79;100.00;100162.22;5003637;28;20256;-75
2021/06/30 05:09:55;;;;;;;34.33;21.77;;;;;;;18.34;100.00;100172.31;5011302;28;20228;-74
2021/06/30 05:12:21;;;;;;;27.13;21.40;;;;;;;18.42;100.00;100173.41;4986788;28;20220;-73
2021/06/30 05:14:46;;;;;;;36.45;27.15;;;;;;;18.63;100.00;100164.00;4975697;28;20182;-75
2021/06/30 05:17:12;;;;;;;39.63;33.30;;;;;;;18.52;100.00;100168.31;4977161;28;20233;-76
2021/06/30 05:19:37;;;;;;;33.60;28.35;;;;;;;18.69;100.00;100168.16;4971706;28;20195;-74
2021/06/30 05:22:03;;;;;;;26.65;21.77;;;;;;;18.71;100.00;100174.94;4967017;28;20269;-74
2021/06/30 05:24:29;;;;;;;25.63;21.92;;;;;;;18.43;100.00;100175.03;4992829;28;20204;-74
2021/06/30 05:26:55;;;;;;;24.88;22.23;;;;;;;18.61;100.00;100171.81;4976458;28;20256;-72
2021/06/30 05:29:20;;;;;;;24.70;21.60;;;;;;;18.88;100.00;100172.84;5002381;28;20192;-73
2021/06/30 05:31:48;;;;;;;24.48;21.02;;;;;;;18.78;100.00;100171.66;4969223;28;20214;-71
2021/06/30 05:34:16;;;;;;;25.33;22.58;;;;;;;18.96;100.00;100163.69;4986197;28;20201;-74
2021/06/30 05:36:50;;;;;;;73.10;62.53;;;;;;;18.98;100.00;100160.63;4974934;28;20732;-73
2021/06/30 05:39:19;;;;;;;37.40;31.95;;;;;;;19.03;100.00;100152.97;4976321;28;20202;-74
2021/06/30 05:41:49;;;;;;;28.35;22.00;;;;;;;19.00;100.00;100153.63;4979161;28;20228;-74
2021/06/30 05:44:15;;;;;;;29.95;22.13;;;;;;;18.93;100.00;100147.03;4995972;28;20200;-74
2021/06/30 05:46:41;;;;;;;30.80;22.65;;;;;;;18.98;100.00;100161.44;4975961;28;20233;-75
2021/06/30 05:49:12;;;;;;;28.05;22.73;;;;;;;19.04;100.00;100162.03;4980508;28;20186;-74
2021/06/30 05:51:38;;;;;;;27.60;22.05;;;;;;;18.88;100.00;100162.97;5008207;28;20248;-75
2021/06/30 05:54:06;;;;;;;27.35;22.38;;;;;;;18.69;100.00;100157.16;5004171;28;20176;-75
2021/06/30 05:56:35;;;;;;;29.08;22.30;;;;;;;18.81;100.00;100162.69;5016568;28;20260;-76
2021/06/30 05:59:04;;;;;;;29.17;22.55;;;;;;;18.89;100.00;100151.63;4984941;28;20192;-75
2021/06/30 06:01:30;;;;;;;28.45;22.48;;;;;;;19.23;100.00;100157.63;4980851;28;20252;-75
2021/06/30 06:03:55;;;;;;;31.92;23.33;;;;;;;19.17;100.00;100150.69;5003264;28;20200;-75
2021/06/30 06:06:23;;;;;;;28.38;22.98;;;;;;;19.49;100.00;100155.38;5000154;28;20244;-77
2021/06/30 06:08:49;;;;;;;29.75;23.15;;;;;;;19.59;100.00;100163.19;4994190;28;20186;-74
2021/06/30 06:11:14;;;;;;;27.92;22.10;;;;;;;19.53;100.00;100161.81;4980804;28;20693;-75
2021/06/30 06:13:45;;;;;;;27.80;21.08;;;;;;;19.55;100.00;100156.75;4981276;28;20201;-74
2021/06/30 06:16:16;;;;;;;29.45;22.45;;;;;;;19.58;100.00;100167.91;4960073;28;20221;-76
2021/06/30 06:18:41;;;;;;;28.85;22.00;;;;;;;19.63;100.00;100158.59;4991563;28;20227;-75
2021/06/30 06:21:07;;;;;;;29.27;22.38;;;;;;;19.45;100.00;100160.75;4997324;28;20226;-76
2021/06/30 06:23:40;;;;;;;26.98;20.90;;;;;;;19.44;100.00;100169.34;4956139;28;20182;-75
2021/06/30 06:26:05;;;;;;;30.60;22.17;;;;;;;19.55;100.00;100168.56;4963243;28;20229;-75
2021/06/30 06:28:35;;;;;;;31.83;23.58;;;;;;;19.60;100.00;100162.03;4975776;28;20186;-77
2021/06/30 06:31:10;;;;;;;32.92;23.23;;;;;;;19.49;100.00;100167.19;4989741;28;20243;-77
2021/06/30 06:33:38;;;;;;;30.55;22.50;;;;;;;19.78;100.00;100164.25;4987924;28;20215;-75
2021/06/30 06:36:10;;;;;;;31.42;23.83;;;;;;;19.71;100.00;100162.03;4992675;28;20243;-75
2021/06/30 06:38:38;;;;;;;28.77;22.38;;;;;;;19.68;100.00;100165.47;4977167;28;20702;-76
2021/06/30 06:41:05;;;;;;;29.63;22.45;;;;;;;20.17;100.00;100162.38;4964055;28;20220;-75
2021/06/30 06:43:34;;;;;;;31.95;23.08;;;;;;;20.30;100.00;100154.91;4977197;28;20187;-75
2021/06/30 06:45:59;;;;;;;25.75;21.27;;;;;;;20.53;100.00;100157.59;4938969;28;20289;-75
2021/06/30 06:48:25;;;;;;;29.42;22.52;;;;;;;20.48;100.00;100157.84;4974340;28;20185;-76
2021/06/30 06:50:53;;;;;;;26.13;21.88;;;;;;;20.55;100.00;100151.75;4992128;28;20216;-76
2021/06/30 06:53:21;;;;;;;27.73;21.77;;;;;;;20.56;100.00;100162.41;4970898;28;20337;-75
2021/06/30 06:55:47;;;;;;;28.48;21.52;;;;;;;20.89;100.00;100151.97;4986523;28;20254;-76
2021/06/30 06:58:15;;;;;;;29.58;22.95;;;;;;;20.87;100.00;100155.06;4991135;28;20220;-76
2021/06/30 07:00:41;;;;;;;29.23;23.08;;;;;;;21.01;100.00;100160.22;4983666;28;20232;-75
2021/06/30 07:03:09;;;;;;;27.25;21.77;;;;;;;21.15;100.00;100166.13;4979675;28;20181;-75
2021/06/30 07:05:35;;;;;;;27.27;22.58;;;;;;;21.05;100.00;100172.97;5009166;28;20294;-74
2021/06/30 07:08:00;;;;;;;24.75;21.83;;;;;;;20.74;100.00;100176.78;4970048;28;20186;-75
2021/06/30 07:10:26;;;;;;;29.08;22.98;;;;;;;20.85;100.00;100181.44;4954788;28;20221;-74
2021/06/30 07:12:54;;;;;;;25.08;20.55;;;;;;;20.69;100.00;100175.06;4991864;28;20588;-76
2021/06/30 07:15:21;;;;;;;22.50;19.70;;;;;;;20.46;100.00;100179.47;4977596;28;20178;-75
2021/06/30 07:17:49;;;;;;;24.90;20.45;;;;;;;20.71;100.00;100183.78;4979377;28;20206;-75
2021/06/30 07:20:17;;;;;;;24.40;20.42;;;;;;;20.53;100.00;100187.97;4996050;28;20193;-75
2021/06/30 07:22:45;;;;;;;23.75;20.27;;;;;;;20.51;100.00;100190.28;4997468;28;20227;-77
2021/06/30 07:25:12;;;;;;;25.65;21.10;;;;;;;20.64;100.00;100186.38;4973958;28;20783;-74
2021/06/30 07:27:41;;;;;;;23.58;20.13;;;;;;;20.33;100.00;100195.56;4973594;28;20272;-75
2021/06/30 07:30:09;;;;;;;23.67;20.48;;;;;;;20.20;100.00;100199.50;4976841;28;20193;-76
2021/06/30 07:32:40;;;;;;;26.60;21.58;;;;;;;20.24;100.00;100201.25;4977627;28;20204;-75
2021/06/30 07:35:05;;;;;;;25.48;22.08;;;;;;;20.30;100.00;100204.56;4974303;28;20187;-75
2021/06/30 07:37:36;;;;;;;27.27;21.27;;;;;;;20.25;100.00;100205.59;4957412;28;20230;-74
2021/06/30 07:40:05;;;;;;;24.77;21.70;;;;;;;20.17;100.00;100205.72;4989453;28;20272;-75
2021/06/30 07:42:30;;;;;;;26.50;22.42;;;;;;;20.14;100.00;100201.69;4984755;28;20631;-78
2021/06/30 07:44:56;;;;;;;25.80;22.75;;;;;;;20.18;100.00;100204.56;4977978;28;20222;-77
2021/06/30 07:47:21;;;;;;;26.95;22.58;;;;;;;20.34;100.00;100205.47;4956097;28;20230;-77
2021/06/30 07:49:49;;;;;;;28.40;23.05;;;;;;;20.40;100.00;100212.38;5000168;28;20188;-77
2021/06/30 07:52:15;;;;;;;28.20;22.55;;;;;;;20.59;100.00;100208.66;4980127;28;20657;-77
2021/06/30 07:54:41;;;;;;;30.05;24.17;;;;;;;20.60;100.00;100203.94;4982210;28;20186;-78
2021/06/30 07:57:09;;;;;;;29.85;24.30;;;;;;;20.83;100.00;100208.63;4986767;28;20244;-78
2021/06/30 07:59:36;;;;;;;31.48;26.35;;;;;;;20.46;100.00;100209.84;4979376;28;20309;-79
2021/06/30 08:02:04;;;;;;;32.13;25.73;;;;;;;20.54;100.00;100206.13;4977494;28;20321;-78
2021/06/30 08:04:32;;;;;;;31.13;26.02;;;;;;;20.40;100.00;100204.88;5001991;28;20658;-76
2021/06/30 08:07:00;;;;;;;34.28;26.42;;;;;;;20.48;100.00;100217.78;4995508;28;20248;-79
2021/06/30 08:09:27;;;;;;;34.33;26.45;;;;;;;19.90;100.00;100211.94;4988646;28;20236;-77
2021/06/30 08:11:53;;;;;;;34.70;26.45;;;;;;;20.09;100.00;100203.88;4996844;28;20651;-78
2021/06/30 08:14:18;;;;;;;35.67;27.73;;;;;;;20.12;100.00;100192.97;4983171;28;20190;-79
2021/06/30 08:16:44;;;;;;;37.13;27.92;;;;;;;20.10;100.00;100199.97;4975107;28;20241;-77
2021/06/30 08:19:12;;;;;;;32.92;25.77;;;;;;;20.23;100.00;100215.38;4980334;28;20262;-77
2021/06/30 08:21:37;;;;;;;33.88;25.48;;;;;;;20.41;100.00;100214.00;4994545;28;20225;-78
2021/06/30 08:24:06;;;;;;;36.95;25.95;;;;;;;20.02;100.00;100209.19;4992252;28;20680;-78
2021/06/30 08:26:33;;;;;;;32.13;24.73;;;;;;;19.87;100.00;100217.31;4956266;28;20233;-78
2021/06/30 08:29:01;;;;;;;36.65;26.52;;;;;;;19.83;100.00;100208.94;4985998;28;20185;-78
2021/06/30 08:31:27;;;;;;;36.00;26.45;;;;;;;19.99;100.00;100214.59;4975214;28;20229;-79
2021/06/30 08:33:53;;;;;;;38.63;27.13;;;;;;;19.85;100.00;100217.69;4975820;28;20694;-78
2021/06/30 08:36:18;;;;;;;39.75;26.98;;;;;;;19.68;100.00;100220.59;4994727;28;20228;-78
2021/06/30 08:38:44;;;;;;;38.95;26.35;;;;;;;19.74;100.00;100230.28;4995041;28;20275;-78
2021/06/30 08:41:10;;;;;;;36.90;27.17;;;;;;;19.71;100.00;100214.41;4998212;28;20224;-78
2021/06/30 08:43:35;;;;;;;37.42;25.38;;;;;;;19.86;100.00;100222.03;4988534;28;20188;-78
2021/06/30 08:46:03;;;;;;;34.72;24.15;;;;;;;19.96;100.00;100227.09;4996273;28;20280;-78
2021/06/30 08:48:29;;;;;;;36.72;25.98;;;;;;;19.65;100.00;100225.19;4976341;28;20598;-79
2021/06/30 08:50:57;;;;;;;33.92;24.35;;;;;;;19.75;100.00;100226.34;4989033;28;20656;-79
2021/06/30 08:53:25;;;;;;;32.40;23.40;;;;;;;19.83;100.00;100225.47;4996829;28;20189;-77
2021/06/30 08:55:51;;;;;;;34.42;24.08;;;;;;;19.71;100.00;100232.91;4981509;28;20236;-79
2021/06/30 08:58:19;;;;;;;32.33;23.75;;;;;;;19.88;100.00;100225.25;4978310;28;20192;-78
2021/06/30 09:00:45;;;;;;;29.55;22.38;;;;;;;19.99;100.00;100220.91;4963824;28;20234;-78
2021/06/30 09:03:16;;;;;;;31.38;22.85;;;;;;;20.41;100.00;100222.25;4978374;28;20252;-78
2021/06/30 09:06:01;;;;;;;29.85;22.55;;;;;;;20.71;100.00;100222.44;4971225;28;20287;-78
2021/06/30 09:08:44;;;;;;;28.20;21.17;;;;;;;20.53;100.00;100226.63;4999042;28;20185;-78
2021/06/30 09:11:10;;;;;;;26.45;20.45;;;;;;;20.73;100.00;100231.22;4987965;28;20594;-78
2021/06/30 09:13:36;;;;;;;26.65;21.58;;;;;;;20.54;100.00;100224.66;4988563;28;20231;-78
2021/06/30 09:16:04;;;;;;;25.75;21.02;;;;;;;20.74;100.00;100221.75;4980919;28;20234;-80
2021/06/30 09:18:37;;;;;;;26.77;20.63;;;;;;;20.91;100.00;100227.00;4942589;28;20583;-78
2021/06/30 09:21:21;;;;;;;28.88;21.35;;;;;;;21.03;100.00;100229.72;4961069;28;20315;-79
2021/06/30 09:24:17;;;;;;;30.10;21.05;;;;;;;20.61;100.00;100228.44;4997618;28;20646;-78
2021/06/30 09:26:57;;;;;;;31.75;21.83;;;;;;;20.33;100.00;100236.97;4979944;28;20737;-78
2021/06/30 09:29:22;;;;;;;32.63;22.05;;;;;;;20.26;100.00;100225.72;4976404;28;20280;-79
2021/06/30 09:31:50;;;;;;;33.55;23.05;;;;;;;20.18;100.00;100229.41;4973897;28;20296;-78
2021/06/30 09:34:30;;;;;;;33.10;22.30;;;;;;;20.19;100.00;100222.75;4976510;28;20228;-79
2021/06/30 09:36:59;;;;;;;33.25;23.13;;;;;;;20.34;100.00;100233.88;4971988;28;20236;-80
2021/06/30 09:39:27;;;;;;;35.60;22.27;;;;;;;19.94;100.00;100234.91;4958623;28;20192;-79
2021/06/30 09:42:08;;;;;;;36.95;22.75;;;;;;;20.21;100.00;100234.22;4996892;28;20229;-78
2021/06/30 09:44:34;;;;;;;35.83;22.95;;;;;;;20.20;100.00;100227.09;4993235;28;20224;-78
2021/06/30 09:47:02;;;;;;;33.80;22.05;;;;;;;20.23;100.00;100232.72;4980703;28;20257;-79
2021/06/30 09:49:27;;;;;;;32.35;20.75;;;;;;;20.50;100.00;100238.34;4975718;28;20240;-79
2021/06/30 09:52:12;;;;;;;30.90;20.92;;;;;;;20.39;100.00;100238.38;4989371;28;20232;-79
2021/06/30 09:54:42;;;;;;;29.60;20.38;;;;;;;20.40;100.00;100242.72;4995585;28;20191;-79
2021/06/30 09:57:11;;;;;;;30.23;20.33;;;;;;;20.53;100.00;100245.94;4996219;28;20221;-77
2021/06/30 09:59:38;;;;;;;31.50;20.20;;;;;;;20.31;100.00;100240.09;4983193;28;20189;-77
2021/06/30 10:02:08;;;;;;;28.10;19.90;;;;;;;20.39;100.00;100246.66;4970382;28;20225;-78
2021/06/30 10:04:43;;;;;;;29.63;21.17;;;;;;;20.42;100.00;100249.53;4956776;28;20667;-78
2021/06/30 10:07:13;;;;;;;29.65;19.52;;;;;;;20.47;100.00;100250.09;4984364;28;20229;-79
2021/06/30 10:10:05;;;;;;;27.98;19.35;;;;;;;20.32;100.00;100249.16;4973488;28;20193;-79
2021/06/30 10:12:33;;;;;;;27.80;19.80;;;;;;;20.52;100.00;100257.31;4968117;28;20278;-79
2021/06/30 10:15:00;;;;;;;26.30;19.13;;;;;;;20.42;100.00;100249.53;4975547;28;20248;-78
2021/06/30 10:17:26;;;;;;;29.88;19.40;;;;;;;20.28;100.00;100240.78;5006325;28;20236;-79
2021/06/30 10:19:53;;;;;;;26.90;18.58;;;;;;;20.29;100.00;100245.16;4995740;28;20185;-78
2021/06/30 10:22:19;;;;;;;26.65;19.55;;;;;;;20.46;100.00;100248.47;4976266;28;20276;-79
2021/06/30 10:24:47;;;;;;;29.27;19.83;;;;;;;20.40;100.00;100239.97;4974175;28;20204;-77
2021/06/30 10:27:13;;;;;;;27.30;18.83;;;;;;;20.67;100.00;100243.63;4973211;28;20641;-78
2021/06/30 10:29:43;;;;;;;27.83;18.45;;;;;;;20.53;100.00;100243.19;4981989;28;20220;-78
2021/06/30 10:32:15;;;;;;;26.73;18.50;;;;;;;20.84;100.00;100240.59;4970557;28;20233;-78
2021/06/30 10:34:48;;;;;;;24.33;18.30;;;;;;;20.99;100.00;100237.91;4955474;28;20240;-77
2021/06/30 10:37:17;;;;;;;23.52;17.10;;;;;;;21.10;100.00;100238.19;4975815;28;20228;-78
2021/06/30 10:39:47;;;;;;;24.60;18.67;;;;;;;21.09;100.00;100236.59;5010043;28;20629;-78
2021/06/30 10:42:28;;;;;;;23.27;17.15;;;;;;;21.11;100.00;100234.28;4982988;28;20217;-78
2021/06/30 10:44:55;;;;;;;22.48;16.83;;;;;;;21.00;100.00;100231.22;4970034;28;20220;-78
2021/06/30 10:47:56;;;;;;;21.45;16.13;;;;;;;21.06;100.00;100234.53;4999344;28;20232;-77
2021/06/30 10:50:31;;;;;;;25.25;17.13;;;;;;;21.09;100.00;100233.84;5013614;28;20185;-77
2021/06/30 10:53:11;;;;;;;23.10;16.42;;;;;;;20.94;100.00;100229.06;4999400;28;20189;-78
2021/06/30 10:55:40;;;;;;;23.00;16.33;;;;;;;20.73;100.00;100224.84;4978904;28;20236;-78
2021/06/30 10:58:17;;;;;;;21.17;16.30;;;;;;;20.17;100.00;100225.03;5002980;28;20178;-78
2021/06/30 11:00:50;;;;;;;21.98;16.08;;;;;;;20.06;100.00;100224.69;4966310;28;20644;-79
2021/06/30 11:03:27;;;;;;;21.45;16.05;;;;;;;19.92;100.00;100231.69;4982970;28;20212;-78
2021/06/30 11:06:23;;;;;;;21.75;15.35;;;;;;;20.08;100.00;100218.84;4990461;28;20232;-78